createdAt,value
2023-02-24T00:01:24.871Z,63.70
2023-02-24T00:03:56.775Z,63.80
2023-02-24T00:06:24.955Z,63.90
2023-02-24T00:08:53.425Z,64.20
2023-02-24T00:11:22.020Z,64.10
2023-02-24T00:13:50.178Z,64.10
2023-02-24T00:16:18.552Z,64.10
2023-02-24T00:18:46.642Z,64.10
2023-02-24T00:21:16.889Z,64.20
2023-02-24T00:23:46.890Z,64.30
2023-02-24T00:26:16.045Z,64.20
2023-02-24T00:28:44.322Z,64.10
2023-02-24T00:31:17.067Z,64.20
2023-02-24T00:33:45.804Z,64.10
2023-02-24T00:36:16.138Z,64.30
2023-02-24T00:38:46.981Z,64.40
2023-02-24T00:41:18.151Z,64.10
2023-02-24T00:43:47.662Z,63.80
2023-02-24T00:46:17.098Z,63.50
2023-02-24T00:48:46.930Z,63.50
2023-02-24T00:51:18.135Z,63.40
2023-02-24T00:53:46.158Z,63.70
2023-02-24T00:56:16.112Z,63.60
2023-02-24T00:58:44.843Z,63.50
2023-02-24T01:01:14.452Z,63.60
2023-02-24T01:03:43.131Z,63.80
2023-02-24T01:06:12.243Z,63.80
2023-02-24T01:08:47.367Z,64.10
2023-02-24T01:11:32.628Z,64.00
2023-02-24T01:14:00.596Z,63.90
2023-02-24T01:16:28.582Z,64.00
2023-02-24T01:18:56.503Z,64.10
2023-02-24T01:21:24.872Z,64.10
2023-02-24T01:23:54.284Z,64.50
2023-02-24T01:26:22.515Z,64.10
2023-02-24T01:28:50.427Z,63.80
2023-02-24T01:31:20.870Z,63.70
2023-02-24T01:33:49.965Z,63.80
2023-02-24T01:36:20.114Z,63.80
2023-02-24T01:38:49.188Z,64.00
2023-02-24T01:41:19.915Z,64.00
2023-02-24T01:43:58.916Z,63.90
2023-02-24T01:46:28.539Z,63.90
2023-02-24T01:48:58.618Z,64.00
2023-02-24T01:51:28.232Z,64.10
2023-02-24T01:53:56.340Z,64.40
2023-02-24T01:56:25.603Z,64.10
2023-02-24T01:58:55.351Z,63.80
2023-02-24T02:01:23.799Z,63.70
2023-02-24T02:03:52.276Z,63.50
2023-02-24T02:06:20.441Z,63.60
2023-02-24T02:08:48.315Z,63.80
2023-02-24T02:11:22.827Z,63.70
2023-02-24T02:13:52.658Z,63.70
2023-02-24T02:16:29.565Z,63.80
2023-02-24T02:19:03.502Z,63.90
2023-02-24T02:21:41.125Z,64.00
2023-02-24T02:24:19.932Z,64.20
2023-02-24T02:27:01.981Z,64.00
2023-02-24T02:29:46.164Z,64.00
2023-02-24T02:32:27.194Z,64.10
2023-02-24T02:34:57.270Z,64.00
2023-02-24T02:37:27.675Z,64.30
2023-02-24T02:40:00.217Z,64.20
2023-02-24T02:42:30.105Z,64.10
2023-02-24T02:45:05.162Z,64.10
2023-02-24T02:47:36.614Z,64.10
2023-02-24T02:50:11.096Z,64.20
2023-02-24T02:52:42.290Z,64.30
2023-02-24T02:55:12.147Z,64.40
2023-02-24T02:57:40.326Z,64.00
2023-02-24T03:00:13.359Z,63.70
2023-02-24T03:02:43.057Z,64.10
2023-02-24T03:05:12.727Z,63.40
2023-02-24T03:07:42.898Z,63.60
2023-02-24T03:10:20.708Z,63.60
2023-02-24T03:12:51.729Z,63.50
2023-02-24T03:15:21.188Z,63.60
2023-02-24T03:17:50.418Z,63.70
2023-02-24T03:20:22.356Z,63.80
2023-02-24T03:22:51.936Z,64.10
2023-02-24T03:25:24.068Z,64.00
2023-02-24T03:27:53.210Z,63.90
2023-02-24T03:30:22.612Z,64.00
2023-02-24T03:32:55.995Z,64.00
2023-02-24T03:35:27.462Z,64.00
2023-02-24T03:37:57.855Z,64.30
2023-02-24T03:40:30.022Z,64.10
2023-02-24T03:43:00.683Z,64.10
2023-02-24T03:45:29.289Z,64.10
2023-02-24T03:47:59.815Z,64.10
2023-02-24T03:50:31.811Z,64.20
2023-02-24T03:53:08.699Z,64.40
2023-02-24T03:55:41.167Z,64.30
2023-02-24T03:58:13.456Z,64.10
2023-02-24T04:00:47.677Z,63.60
2023-02-24T04:03:23.576Z,63.40
2023-02-24T04:05:58.885Z,63.40
2023-02-24T04:08:27.396Z,63.60
2023-02-24T04:11:05.209Z,63.50
2023-02-24T04:13:36.482Z,63.50
2023-02-24T04:16:16.864Z,63.60
2023-02-24T04:18:48.197Z,63.70
2023-02-24T04:21:20.380Z,63.90
2023-02-24T04:23:48.563Z,64.00
2023-02-24T04:26:17.429Z,64.00
2023-02-24T04:28:48.465Z,63.90
2023-02-24T04:31:18.243Z,64.10
2023-02-24T04:33:50.219Z,64.00
2023-02-24T04:36:22.792Z,64.10
2023-02-24T04:38:50.758Z,64.30
2023-02-24T04:41:21.540Z,64.10
2023-02-24T04:43:50.688Z,64.00
2023-02-24T04:46:18.860Z,64.00
2023-02-24T04:48:47.077Z,64.10
2023-02-24T04:51:15.011Z,64.20
2023-02-24T04:53:44.366Z,64.50
2023-02-24T04:56:12.379Z,64.20
2023-02-24T04:58:43.771Z,63.80
2023-02-24T05:01:12.752Z,63.50
2023-02-24T05:03:42.922Z,63.20
2023-02-24T05:06:15.954Z,63.10
2023-02-24T05:08:45.968Z,63.50
2023-02-24T05:11:16.949Z,63.40
2023-02-24T05:13:46.367Z,63.30
2023-02-24T05:16:16.404Z,63.40
2023-02-24T05:18:45.497Z,63.40
2023-02-24T05:21:32.133Z,63.60
2023-02-24T05:24:06.391Z,63.90
2023-02-24T05:26:35.837Z,63.70
2023-02-24T05:29:04.184Z,63.70
2023-02-24T05:31:32.279Z,63.70
2023-02-24T05:34:02.512Z,63.80
2023-02-24T05:36:31.838Z,64.00
2023-02-24T05:39:06.779Z,64.20
2023-02-24T05:41:36.089Z,64.00
2023-02-24T05:44:08.536Z,63.90
2023-02-24T05:46:38.365Z,64.00
2023-02-24T05:49:09.336Z,63.90
2023-02-24T05:51:39.092Z,64.00
2023-02-24T05:54:09.422Z,64.30
2023-02-24T05:56:39.396Z,64.20
2023-02-24T05:59:10.749Z,63.80
2023-02-24T06:01:41.324Z,63.50
2023-02-24T06:04:09.938Z,63.20
2023-02-24T06:06:38.593Z,63.20
2023-02-24T06:09:10.870Z,63.50
2023-02-24T06:11:38.940Z,63.40
2023-02-24T06:14:07.915Z,63.30
2023-02-24T06:16:36.169Z,63.50
2023-02-24T06:19:04.809Z,63.50
2023-02-24T06:21:32.728Z,63.70
2023-02-24T06:24:00.855Z,64.00
2023-02-24T06:26:33.813Z,63.80
2023-02-24T06:29:01.769Z,63.80
2023-02-24T06:31:29.662Z,63.70
2023-02-24T06:33:57.560Z,63.80
2023-02-24T06:36:25.498Z,63.90
2023-02-24T06:38:53.882Z,64.20
2023-02-24T06:41:22.725Z,64.00
2023-02-24T06:43:52.886Z,63.90
2023-02-24T06:46:20.797Z,63.80
2023-02-24T06:48:49.042Z,64.00
2023-02-24T06:51:17.196Z,64.00
2023-02-24T06:53:45.346Z,64.20
2023-02-24T06:56:15.731Z,64.90
2023-02-24T06:58:46.996Z,63.70
2023-02-24T07:01:17.657Z,64.10
2023-02-24T07:04:03.251Z,63.10
2023-02-24T07:06:31.889Z,63.20
2023-02-24T07:08:59.991Z,63.40
2023-02-24T07:11:29.239Z,63.30
2023-02-24T07:13:57.547Z,63.30
2023-02-24T07:16:28.726Z,63.30
2023-02-24T07:18:57.460Z,63.50
2023-02-24T07:21:25.987Z,63.60
2023-02-24T07:23:58.843Z,63.90
2023-02-24T07:26:27.827Z,63.80
2023-02-24T07:28:57.236Z,63.70
2023-02-24T07:31:26.912Z,64.50
2023-02-24T07:33:55.804Z,63.80
2023-02-24T07:36:24.052Z,63.80
2023-02-24T07:38:53.246Z,64.10
2023-02-24T07:41:22.858Z,64.10
2023-02-24T07:43:51.728Z,63.80
2023-02-24T07:46:24.439Z,63.50
2023-02-24T07:48:53.807Z,63.40
2023-02-24T07:51:22.830Z,63.50
2023-02-24T07:53:52.840Z,63.70
2023-02-24T07:56:26.819Z,63.70
2023-02-24T07:58:59.113Z,63.50
2023-02-24T08:01:28.125Z,63.50
2023-02-24T08:04:00.344Z,63.60
2023-02-24T08:06:37.801Z,63.80
2023-02-24T08:09:16.688Z,64.00
2023-02-24T08:11:46.041Z,64.10
2023-02-24T08:14:14.760Z,63.70
2023-02-24T08:16:43.713Z,63.50
2023-02-24T08:19:14.098Z,63.50
2023-02-24T08:21:47.174Z,63.50
2023-02-24T08:24:17.792Z,63.80
2023-02-24T08:26:48.328Z,63.70
2023-02-24T08:29:20.341Z,63.60
2023-02-24T08:31:50.165Z,63.60
2023-02-24T08:34:19.426Z,63.80
2023-02-24T08:36:55.736Z,63.80
2023-02-24T08:39:23.740Z,64.00
2023-02-24T08:41:54.303Z,64.00
2023-02-24T08:44:22.176Z,63.70
2023-02-24T08:46:50.351Z,63.80
2023-02-24T08:49:19.721Z,63.90
2023-02-24T08:51:48.312Z,63.90
2023-02-24T08:54:17.356Z,64.20
2023-02-24T08:56:49.183Z,64.10
2023-02-24T08:59:37.789Z,63.80
2023-02-24T09:02:19.269Z,63.50
2023-02-24T09:04:49.525Z,63.20
2023-02-24T09:07:18.178Z,62.90
2023-02-24T09:09:46.773Z,63.40
2023-02-24T09:12:21.831Z,63.20
2023-02-24T09:14:50.614Z,62.90
2023-02-24T09:17:20.685Z,63.00
2023-02-24T09:20:08.477Z,62.90
2023-02-24T09:22:57.709Z,62.80
2023-02-24T09:25:25.794Z,63.80
2023-02-24T09:27:55.679Z,63.20
2023-02-24T09:30:38.358Z,63.20
2023-02-24T09:33:17.716Z,63.40
2023-02-24T09:35:48.922Z,63.50
2023-02-24T09:38:17.646Z,63.80
2023-02-24T09:40:52.311Z,63.90
2023-02-24T09:43:24.235Z,64.30
2023-02-24T09:45:59.262Z,63.60
2023-02-24T09:48:45.922Z,63.80
2023-02-24T09:51:21.811Z,63.90
2023-02-24T09:53:53.553Z,64.20
2023-02-24T09:56:29.315Z,64.00
2023-02-24T09:59:10.173Z,63.60
2023-02-24T10:01:43.688Z,63.30
2023-02-24T10:04:29.862Z,63.00
2023-02-24T10:07:03.689Z,63.00
2023-02-24T10:09:34.473Z,63.40
2023-02-24T10:12:11.632Z,63.40
2023-02-24T10:14:44.664Z,63.20
2023-02-24T10:17:31.824Z,63.20
2023-02-24T10:20:02.370Z,63.50
2023-02-24T10:22:50.317Z,63.40
2023-02-24T10:25:27.179Z,63.90
2023-02-24T10:28:02.533Z,63.70
2023-02-24T10:30:40.768Z,63.50
2023-02-24T10:33:28.068Z,63.50
2023-02-24T10:36:09.107Z,63.50
2023-02-24T10:38:40.777Z,64.00
2023-02-24T10:41:10.223Z,64.10
2023-02-24T10:43:45.596Z,63.90
2023-02-24T10:46:40.056Z,63.50
2023-02-24T10:49:11.694Z,63.00
2023-02-24T10:51:41.378Z,63.10
2023-02-24T10:54:31.472Z,63.50
2023-02-24T10:57:15.253Z,63.70
2023-02-24T11:00:13.912Z,63.30
2023-02-24T11:03:07.196Z,63.40
2023-02-24T11:05:44.283Z,63.40
2023-02-24T11:08:36.245Z,63.60
2023-02-24T11:11:20.252Z,64.00
2023-02-24T11:14:08.809Z,63.60
2023-02-24T11:17:04.836Z,64.30
2023-02-24T11:19:32.892Z,63.50
2023-02-24T11:22:00.792Z,63.70
2023-02-24T11:24:29.163Z,64.00
2023-02-24T11:26:58.381Z,64.10
2023-02-24T11:29:37.798Z,63.90
2023-02-24T11:32:34.851Z,63.50
2023-02-24T11:35:05.749Z,63.00
2023-02-24T11:37:37.806Z,63.00
2023-02-24T11:40:08.698Z,63.40
2023-02-24T11:42:41.951Z,63.50
2023-02-24T11:45:16.018Z,63.20
2023-02-24T11:47:45.262Z,63.30
2023-02-24T11:50:39.473Z,63.20
2023-02-24T11:53:11.691Z,63.50
2023-02-24T11:55:42.454Z,63.80
2023-02-24T11:58:15.633Z,63.50
2023-02-24T12:00:48.306Z,63.30
2023-02-24T12:03:19.265Z,63.50
2023-02-24T12:05:49.837Z,64.20
2023-02-24T12:08:23.583Z,63.70
2023-02-24T12:10:52.984Z,64.00
2023-02-24T12:13:24.990Z,64.00
2023-02-24T12:15:56.884Z,63.60
2023-02-24T12:18:27.514Z,64.00
2023-02-24T12:20:58.444Z,63.20
2023-02-24T12:23:29.397Z,63.40
2023-02-24T12:26:16.209Z,63.70
2023-02-24T12:29:05.268Z,63.40
2023-02-24T12:31:37.455Z,63.30
2023-02-24T12:34:09.599Z,63.50
2023-02-24T12:36:48.578Z,63.50
2023-02-24T12:39:18.223Z,63.50
2023-02-24T12:41:58.274Z,64.00
2023-02-24T12:44:36.742Z,63.80
2023-02-24T12:47:07.585Z,63.50
2023-02-24T12:49:52.884Z,63.30
2023-02-24T12:52:24.938Z,63.40
2023-02-24T12:54:54.501Z,63.40
2023-02-24T12:57:26.388Z,63.70
2023-02-24T12:59:57.973Z,63.50
2023-02-24T13:02:29.175Z,63.60
2023-02-24T13:04:59.852Z,63.80
2023-02-24T13:07:36.914Z,63.80
2023-02-24T13:10:11.701Z,63.70
2023-02-24T13:12:42.025Z,63.70
2023-02-24T13:15:19.550Z,63.10
2023-02-24T13:17:47.949Z,63.40
2023-02-24T13:20:27.437Z,63.70
2023-02-24T13:22:55.331Z,63.70
2023-02-24T13:25:24.631Z,63.90
2023-02-24T13:27:57.765Z,64.10
2023-02-24T13:30:36.897Z,63.80
2023-02-24T13:33:07.326Z,63.50
2023-02-24T13:35:36.583Z,63.10
2023-02-24T13:38:24.360Z,62.90
2023-02-24T13:40:52.262Z,63.30
2023-02-24T13:43:27.980Z,63.50
2023-02-24T13:45:59.037Z,64.00
2023-02-24T13:48:39.031Z,63.40
2023-02-24T13:51:14.937Z,63.60
2023-02-24T13:53:53.223Z,63.60
2023-02-24T13:56:26.996Z,63.70
2023-02-24T13:59:01.525Z,63.70
2023-02-24T14:01:31.095Z,63.00
2023-02-24T14:04:07.580Z,63.40
2023-02-24T14:06:36.735Z,63.60
2023-02-24T14:09:05.203Z,63.80
2023-02-24T14:11:34.918Z,64.10
2023-02-24T14:14:02.853Z,64.30
2023-02-24T14:16:35.736Z,64.10
2023-02-24T14:19:03.965Z,63.80
2023-02-24T14:21:32.894Z,63.60
2023-02-24T14:24:01.518Z,63.50
2023-02-24T14:26:29.699Z,63.70
2023-02-24T14:29:00.536Z,63.80
2023-02-24T14:31:28.741Z,63.50
2023-02-24T14:34:00.672Z,63.70
2023-02-24T14:36:29.942Z,63.50
2023-02-24T14:39:02.199Z,63.80
2023-02-24T14:41:30.118Z,63.90
2023-02-24T14:43:58.101Z,64.10
2023-02-24T14:46:26.655Z,64.00
2023-02-24T14:48:55.964Z,64.10
2023-02-24T14:51:27.123Z,64.00
2023-02-24T14:53:59.235Z,64.10
2023-02-24T14:56:29.231Z,64.40
2023-02-24T14:58:59.224Z,64.30
2023-02-24T15:01:29.326Z,64.10
2023-02-24T15:03:58.183Z,64.10
2023-02-24T15:06:29.420Z,64.10
2023-02-24T15:08:59.167Z,64.30
2023-02-24T15:11:29.534Z,64.60
2023-02-24T15:13:58.336Z,63.70
2023-02-24T15:16:27.464Z,63.20
2023-02-24T15:18:56.260Z,63.20
2023-02-24T15:21:24.972Z,63.00
2023-02-24T15:24:01.394Z,62.90
2023-02-24T15:26:30.659Z,63.50
2023-02-24T15:28:59.972Z,63.50
2023-02-24T15:31:28.300Z,63.10
2023-02-24T15:33:57.884Z,63.40
2023-02-24T15:36:26.675Z,63.20
2023-02-24T15:38:56.594Z,63.20
2023-02-24T15:41:25.907Z,63.80
2023-02-24T15:43:56.081Z,63.90
2023-02-24T15:46:26.190Z,63.60
2023-02-24T15:48:55.452Z,63.60
2023-02-24T15:51:29.177Z,63.70
2023-02-24T15:53:57.099Z,63.80
2023-02-24T15:56:26.428Z,64.20
2023-02-24T15:58:54.326Z,64.00
2023-02-24T16:01:22.508Z,63.70
2023-02-24T16:03:50.505Z,63.70
2023-02-24T16:06:20.211Z,63.80
2023-02-24T16:08:48.568Z,63.80
2023-02-24T16:11:17.549Z,64.30
2023-02-24T16:13:51.613Z,64.20
2023-02-24T16:16:20.038Z,63.90
2023-02-24T16:18:48.089Z,63.60
2023-02-24T16:21:16.218Z,63.30
2023-02-24T16:23:44.137Z,63.10
2023-02-24T16:26:15.608Z,63.60
2023-02-24T16:28:43.576Z,63.50
2023-02-24T16:31:12.969Z,63.40
2023-02-24T16:33:53.659Z,63.30
2023-02-24T16:36:23.970Z,63.20
2023-02-24T16:38:52.059Z,63.30
2023-02-24T16:41:19.961Z,63.90
2023-02-24T16:43:48.206Z,63.80
2023-02-24T16:46:19.026Z,63.40
2023-02-24T16:48:47.722Z,63.50
2023-02-24T16:51:16.000Z,63.70
2023-02-24T16:53:43.954Z,63.70
2023-02-24T16:56:12.323Z,64.10
2023-02-24T16:58:40.227Z,63.80
2023-02-24T17:01:09.518Z,63.50
2023-02-24T17:03:42.348Z,63.50
2023-02-24T17:06:10.404Z,63.70
2023-02-24T17:08:38.734Z,63.50
2023-02-24T17:11:06.823Z,64.00
2023-02-24T17:13:34.792Z,64.70
2023-02-24T17:16:02.783Z,63.60
2023-02-24T17:18:30.703Z,63.30
2023-02-24T17:20:59.981Z,62.60
2023-02-24T17:23:27.963Z,62.40
2023-02-24T17:25:56.841Z,63.20
2023-02-24T17:28:24.801Z,63.20
2023-02-24T17:30:52.897Z,62.80
2023-02-24T17:33:20.839Z,62.50
2023-02-24T17:35:49.091Z,62.90
2023-02-24T17:38:19.431Z,63.10
2023-02-24T17:40:47.701Z,63.50
2023-02-24T17:43:15.925Z,63.50
2023-02-24T17:45:44.896Z,63.00
2023-02-24T17:48:13.148Z,63.10
2023-02-24T17:50:42.341Z,63.30
2023-02-24T17:53:10.229Z,63.40
2023-02-24T17:55:55.913Z,63.80
2023-02-24T17:58:28.858Z,63.80
2023-02-24T18:00:56.858Z,63.40
2023-02-24T18:03:27.271Z,63.10
2023-02-24T18:05:59.586Z,62.90
2023-02-24T18:08:27.561Z,62.50
2023-02-24T18:10:56.858Z,63.00
2023-02-24T18:13:24.764Z,63.10
2023-02-24T18:15:52.761Z,62.80
2023-02-24T18:18:20.733Z,62.90
2023-02-24T18:20:48.602Z,63.10
2023-02-24T18:23:16.542Z,63.20
2023-02-24T18:25:44.659Z,63.50
2023-02-24T18:28:14.144Z,63.50
2023-02-24T18:30:42.152Z,63.20
2023-02-24T18:33:10.211Z,63.20
2023-02-24T18:35:38.919Z,63.20
2023-02-24T18:38:06.902Z,63.30
2023-02-24T18:40:35.014Z,63.80
2023-02-24T18:43:02.960Z,63.50
2023-02-24T18:45:32.341Z,63.10
2023-02-24T18:48:05.797Z,63.20
2023-02-24T18:50:34.089Z,63.20
2023-02-24T18:53:02.514Z,63.30
2023-02-24T18:55:30.617Z,63.80
2023-02-24T18:57:58.554Z,63.90
2023-02-24T19:00:26.770Z,63.50
2023-02-24T19:02:56.083Z,63.20
2023-02-24T19:05:24.906Z,62.90
2023-02-24T19:07:52.853Z,62.40
2023-02-24T19:10:20.900Z,62.60
2023-02-24T19:12:50.628Z,62.90
2023-02-24T19:15:18.815Z,62.70
2023-02-24T19:17:46.825Z,62.60
2023-02-24T19:20:16.239Z,62.70
2023-02-24T19:22:44.369Z,62.80
2023-02-24T19:25:12.294Z,63.00
2023-02-24T19:27:40.272Z,63.40
2023-02-24T19:30:09.645Z,63.80
2023-02-24T19:32:37.796Z,63.10
2023-02-24T19:35:06.392Z,63.00
2023-02-24T19:37:35.744Z,63.10
2023-02-24T19:40:03.765Z,63.50
2023-02-24T19:42:31.676Z,63.50
2023-02-24T19:44:59.604Z,63.20
2023-02-24T19:47:27.498Z,63.00
2023-02-24T19:49:55.461Z,63.10
2023-02-24T19:52:23.341Z,63.20
2023-02-24T19:54:54.493Z,63.70
2023-02-24T19:57:22.439Z,63.70
2023-02-24T19:59:51.753Z,63.30
2023-02-24T20:02:19.673Z,63.00
2023-02-24T20:04:47.619Z,62.90
2023-02-24T20:07:15.523Z,62.50
2023-02-24T20:09:43.704Z,62.90
2023-02-24T20:12:13.743Z,62.90
2023-02-24T20:14:41.644Z,62.70
2023-02-24T20:17:09.621Z,62.70
2023-02-24T20:19:37.751Z,62.80
2023-02-24T20:22:05.689Z,62.80
2023-02-24T20:24:34.956Z,63.40
2023-02-24T20:27:04.630Z,63.40
2023-02-24T20:29:35.082Z,63.10
2023-02-24T20:32:03.831Z,63.00
2023-02-24T20:34:32.014Z,63.10
2023-02-24T20:36:59.948Z,63.20
2023-02-24T20:39:27.853Z,63.60
2023-02-24T20:41:55.792Z,63.60
2023-02-24T20:44:24.532Z,63.20
2023-02-24T20:46:53.920Z,63.10
2023-02-24T20:49:21.934Z,63.20
2023-02-24T20:51:49.866Z,63.20
2023-02-24T20:54:17.920Z,63.60
2023-02-24T20:56:46.116Z,63.80
2023-02-24T20:59:14.916Z,63.50
2023-02-24T21:01:45.732Z,63.10
2023-02-24T21:04:16.752Z,62.80
2023-02-24T21:06:46.517Z,62.50
2023-02-24T21:09:14.627Z,62.90
2023-02-24T21:11:42.559Z,62.90
2023-02-24T21:14:15.248Z,62.80
2023-02-24T21:16:43.174Z,62.90
2023-02-24T21:19:11.045Z,62.90
2023-02-24T21:21:40.351Z,63.00
2023-02-24T21:24:09.083Z,63.00
2023-02-24T21:26:37.035Z,63.30
2023-02-24T21:29:04.947Z,63.20
2023-02-24T21:31:33.051Z,63.10
2023-02-24T21:34:01.070Z,63.20
2023-02-24T21:36:29.230Z,63.20
2023-02-24T21:38:58.554Z,63.50
2023-02-24T21:41:26.464Z,63.50
2023-02-24T21:43:55.585Z,63.30
2023-02-24T21:46:24.680Z,62.90
2023-02-24T21:48:55.157Z,62.70
2023-02-24T21:51:24.794Z,62.70
2023-02-24T21:53:55.181Z,62.80
2023-02-24T21:56:25.172Z,63.00
2023-02-24T21:58:54.541Z,62.80
2023-02-24T22:01:23.922Z,62.80
2023-02-24T22:03:54.062Z,62.90
2023-02-24T22:06:22.328Z,63.10
2023-02-24T22:08:50.384Z,63.10
2023-02-24T22:11:18.788Z,63.30
2023-02-24T22:13:48.079Z,63.10
2023-02-24T22:16:18.053Z,63.10
2023-02-24T22:18:46.166Z,63.20
2023-02-24T22:21:17.040Z,63.20
2023-02-24T22:23:45.050Z,63.30
2023-02-24T22:26:13.122Z,63.50
2023-02-24T22:28:42.112Z,63.30
2023-02-24T22:31:12.575Z,63.00
2023-02-24T22:33:41.701Z,62.70
2023-02-24T22:36:10.608Z,62.50
2023-02-24T22:38:38.905Z,62.60
2023-02-24T22:41:08.252Z,62.90
2023-02-24T22:43:36.147Z,62.80
2023-02-24T22:46:05.778Z,62.70
2023-02-24T22:48:35.945Z,62.70
2023-02-24T22:51:04.759Z,62.80
2023-02-24T22:53:33.557Z,63.60
2023-02-24T22:56:01.491Z,63.20
2023-02-24T22:58:29.561Z,63.20
2023-02-24T23:00:58.434Z,63.00
2023-02-24T23:03:28.243Z,63.10
2023-02-24T23:05:57.614Z,63.20
2023-02-24T23:08:25.687Z,63.20
2023-02-24T23:10:53.722Z,63.40
2023-02-24T23:13:22.049Z,63.30
2023-02-24T23:15:50.228Z,63.00
2023-02-24T23:18:18.403Z,62.80
2023-02-24T23:20:46.506Z,62.70
2023-02-24T23:23:15.903Z,62.90
2023-02-24T23:25:51.098Z,63.00
2023-02-24T23:28:19.164Z,62.90
2023-02-24T23:30:48.045Z,62.90
2023-02-24T23:33:16.002Z,62.90
2023-02-24T23:35:44.254Z,62.90
2023-02-24T23:38:12.288Z,63.00
2023-02-24T23:40:50.179Z,63.10
2023-02-24T23:43:18.573Z,63.20
2023-02-24T23:45:46.572Z,63.10
2023-02-24T23:48:14.969Z,63.20
2023-02-24T23:50:43.243Z,63.10
2023-02-24T23:53:11.165Z,63.20
2023-02-24T23:55:41.200Z,63.30
2023-02-24T23:58:09.322Z,63.30
